createdAt,value
2022-09-28T00:00:09.812Z,11.99
2022-09-28T00:00:21.764Z,11.98
2022-09-28T00:00:33.665Z,12.01
2022-09-28T00:00:47.525Z,12.01
2022-09-28T00:00:59.714Z,11.99
2022-09-28T00:01:25.649Z,12.01
2022-09-28T00:01:37.680Z,12.02
2022-09-28T00:01:49.697Z,12.02
2022-09-28T00:02:01.719Z,12.04
2022-09-28T00:02:13.753Z,12.02
2022-09-28T00:02:26.494Z,12.00
2022-09-28T00:02:39.080Z,12.02
2022-09-28T00:02:51.320Z,11.96
2022-09-28T00:03:03.374Z,12.01
2022-09-28T00:03:15.281Z,12.01
2022-09-28T00:03:30.995Z,12.00
2022-09-28T00:03:43.501Z,12.04
2022-09-28T00:03:59.807Z,12.04
2022-09-28T00:04:12.533Z,12.04
2022-09-28T00:04:24.565Z,12.07
2022-09-28T00:04:36.475Z,12.06
2022-09-28T00:04:48.438Z,12.06
2022-09-28T00:05:00.441Z,12.07
2022-09-28T00:05:12.623Z,12.06
2022-09-28T00:05:28.436Z,12.06
2022-09-28T00:05:40.326Z,12.00
2022-09-28T00:05:52.200Z,12.01
2022-09-28T00:06:07.601Z,12.01
2022-09-28T00:06:22.198Z,12.01
2022-09-28T00:06:34.096Z,12.02
2022-09-28T00:06:50.121Z,12.04
2022-09-28T00:07:02.088Z,12.05
2022-09-28T00:07:13.968Z,12.06
2022-09-28T00:07:26.196Z,12.07
2022-09-28T00:07:38.452Z,12.07
2022-09-28T00:07:50.420Z,12.10
2022-09-28T00:08:02.394Z,12.10
2022-09-28T00:08:14.436Z,12.07
2022-09-28T00:08:26.309Z,12.11
2022-09-28T00:08:39.666Z,12.11
2022-09-28T00:08:51.856Z,12.11
2022-09-28T00:09:04.271Z,12.04
2022-09-28T00:09:17.343Z,12.05
2022-09-28T00:09:29.369Z,12.05
2022-09-28T00:09:41.239Z,12.03
2022-09-28T00:09:53.162Z,12.03
2022-09-28T00:10:05.528Z,12.01
2022-09-28T00:10:17.565Z,12.03
2022-09-28T00:10:29.530Z,12.02
2022-09-28T00:10:43.204Z,12.04
2022-09-28T00:10:56.089Z,12.03
2022-09-28T00:11:12.210Z,12.02
2022-09-28T00:11:28.012Z,12.02
2022-09-28T00:11:40.049Z,12.02
2022-09-28T00:11:53.837Z,12.01
2022-09-28T00:12:06.644Z,12.02
2022-09-28T00:12:18.546Z,12.02
2022-09-28T00:12:31.421Z,12.03
2022-09-28T00:12:43.346Z,12.02
2022-09-28T00:12:55.468Z,11.99
2022-09-28T00:13:08.122Z,11.99
2022-09-28T00:13:19.977Z,11.99
2022-09-28T00:13:33.142Z,11.97
2022-09-28T00:13:48.246Z,11.98
2022-09-28T00:14:03.474Z,11.94
2022-09-28T00:14:15.494Z,11.95
2022-09-28T00:14:28.156Z,11.97
2022-09-28T00:14:44.573Z,11.96
2022-09-28T00:14:56.475Z,11.95
2022-09-28T00:15:08.689Z,11.94
2022-09-28T00:15:21.688Z,11.91
2022-09-28T00:15:33.869Z,11.91
2022-09-28T00:15:45.791Z,11.84
2022-09-28T00:16:01.726Z,11.86
2022-09-28T00:16:16.849Z,11.86
2022-09-28T00:16:34.375Z,11.87
2022-09-28T00:16:46.884Z,11.87
2022-09-28T00:16:58.856Z,11.89
2022-09-28T00:17:12.219Z,11.87
2022-09-28T00:17:26.371Z,11.88
2022-09-28T00:17:38.300Z,11.90
2022-09-28T00:17:50.458Z,11.84
2022-09-28T00:18:02.351Z,11.82
2022-09-28T00:18:14.273Z,11.84
2022-09-28T00:18:26.763Z,11.86
2022-09-28T00:18:38.672Z,11.86
2022-09-28T00:18:51.340Z,11.84
2022-09-28T00:19:04.777Z,11.82
2022-09-28T00:19:16.796Z,11.84
2022-09-28T00:19:28.844Z,11.83
2022-09-28T00:19:44.746Z,11.82
2022-09-28T00:19:57.939Z,11.82
2022-09-28T00:20:10.447Z,11.81
2022-09-28T00:20:22.691Z,11.79
2022-09-28T00:20:34.614Z,11.79
2022-09-28T00:20:46.532Z,11.78
2022-09-28T00:21:12.788Z,11.73
2022-09-28T00:21:28.213Z,11.73
2022-09-28T00:21:41.728Z,11.75
2022-09-28T00:21:53.637Z,11.75
2022-09-28T00:22:06.445Z,11.77
2022-09-28T00:22:18.519Z,11.73
2022-09-28T00:22:30.382Z,11.72
2022-09-28T00:22:42.282Z,11.68
2022-09-28T00:22:54.158Z,11.68
2022-09-28T00:23:06.041Z,11.70
2022-09-28T00:23:17.915Z,11.70
2022-09-28T00:23:29.936Z,11.67
2022-09-28T00:24:01.609Z,11.68
2022-09-28T00:24:17.715Z,11.70
2022-09-28T00:24:30.397Z,11.71
2022-09-28T00:24:42.273Z,11.72
2022-09-28T00:24:54.182Z,11.73
2022-09-28T00:25:07.091Z,11.75
2022-09-28T00:25:21.865Z,11.76
2022-09-28T00:25:33.759Z,11.76
2022-09-28T00:25:45.631Z,11.78
2022-09-28T00:26:04.972Z,11.77
2022-09-28T00:26:16.840Z,11.78
2022-09-28T00:26:30.747Z,11.75
2022-09-28T00:26:46.234Z,11.77
2022-09-28T00:27:01.298Z,11.77
2022-09-28T00:27:13.244Z,11.78
2022-09-28T00:27:25.149Z,11.79
2022-09-28T00:27:37.115Z,11.79
2022-09-28T00:27:51.684Z,11.82
2022-09-28T00:28:03.576Z,11.80
2022-09-28T00:28:15.431Z,11.80
2022-09-28T00:28:27.359Z,11.80
2022-09-28T00:28:39.227Z,11.80
2022-09-28T00:28:55.414Z,11.80
2022-09-28T00:29:12.760Z,11.73
2022-09-28T00:29:28.803Z,11.69
2022-09-28T00:29:43.579Z,11.70
2022-09-28T00:29:55.830Z,11.70
2022-09-28T00:30:08.583Z,11.69
2022-09-28T00:30:20.544Z,11.71
2022-09-28T00:30:32.436Z,11.72
2022-09-28T00:30:44.427Z,11.72
2022-09-28T00:30:56.472Z,11.72
2022-09-28T00:31:08.476Z,11.72
2022-09-28T00:31:21.072Z,11.72
2022-09-28T00:31:34.228Z,11.73
2022-09-28T00:31:46.713Z,11.73
2022-09-28T00:32:07.291Z,11.65
2022-09-28T00:32:21.439Z,11.63
2022-09-28T00:32:33.594Z,11.64
2022-09-28T00:32:45.469Z,11.62
2022-09-28T00:32:57.475Z,11.62
2022-09-28T00:33:09.428Z,11.66
2022-09-28T00:33:21.323Z,11.65
2022-09-28T00:33:33.243Z,11.66
2022-09-28T00:33:45.230Z,11.54
2022-09-28T00:33:58.109Z,11.51
2022-09-28T00:34:10.197Z,11.50
2022-09-28T00:34:22.279Z,11.49
2022-09-28T00:34:42.363Z,11.48
2022-09-28T00:34:55.043Z,11.52
2022-09-28T00:35:07.388Z,11.55
2022-09-28T00:35:19.269Z,11.58
2022-09-28T00:35:31.326Z,11.58
2022-09-28T00:35:43.513Z,11.56
2022-09-28T00:36:01.621Z,11.53
2022-09-28T00:36:13.544Z,11.51
2022-09-28T00:36:29.434Z,11.51
2022-09-28T00:36:45.474Z,11.55
2022-09-28T00:36:58.187Z,11.55
2022-09-28T00:37:10.235Z,11.57
2022-09-28T00:37:22.498Z,11.60
2022-09-28T00:37:34.478Z,11.61
2022-09-28T00:37:48.868Z,11.59
2022-09-28T00:38:02.243Z,11.60
2022-09-28T00:38:16.632Z,11.62
2022-09-28T00:38:30.175Z,11.60
2022-09-28T00:38:42.784Z,11.63
2022-09-28T00:38:58.916Z,11.65
2022-09-28T00:39:11.711Z,11.67
2022-09-28T00:39:24.032Z,11.67
2022-09-28T00:39:38.218Z,11.66
2022-09-28T00:39:50.208Z,11.66
2022-09-28T00:40:02.092Z,11.67
2022-09-28T00:40:14.417Z,11.67
2022-09-28T00:40:26.488Z,11.57
2022-09-28T00:40:38.545Z,11.57
2022-09-28T00:40:50.721Z,11.60
2022-09-28T00:41:02.643Z,11.62
2022-09-28T00:41:15.260Z,11.64
2022-09-28T00:41:28.265Z,11.66
2022-09-28T00:41:40.354Z,11.68
2022-09-28T00:41:52.649Z,11.71
2022-09-28T00:42:12.617Z,11.66
2022-09-28T00:42:26.780Z,11.66
2022-09-28T00:42:42.758Z,11.67
2022-09-28T00:42:54.689Z,11.63
2022-09-28T00:43:20.467Z,11.62
2022-09-28T00:43:32.417Z,11.64
2022-09-28T00:43:44.527Z,11.63
2022-09-28T00:44:24.269Z,11.52
2022-09-28T00:44:40.719Z,11.47
2022-09-28T00:44:54.038Z,11.51
2022-09-28T00:45:08.613Z,11.52
2022-09-28T00:45:25.521Z,11.54
2022-09-28T00:45:37.719Z,11.55
2022-09-28T00:46:10.262Z,11.55
2022-09-28T00:46:28.824Z,11.60
2022-09-28T00:46:41.353Z,11.63
2022-09-28T00:46:55.917Z,11.63
2022-09-28T00:47:24.449Z,11.63
2022-09-28T00:47:49.451Z,11.60
2022-09-28T00:48:01.410Z,11.62
2022-09-28T00:48:13.305Z,11.62
2022-09-28T00:48:29.244Z,11.63
2022-09-28T00:48:51.019Z,11.57
2022-09-28T00:49:09.134Z,11.56
2022-09-28T00:49:31.269Z,11.52
2022-09-28T00:49:55.092Z,11.37
2022-09-28T00:50:10.974Z,11.42
2022-09-28T00:50:28.837Z,11.36
2022-09-28T00:50:40.913Z,11.39
2022-09-28T00:50:52.992Z,11.36
2022-09-28T00:51:09.346Z,11.40
2022-09-28T00:51:23.419Z,11.43
2022-09-28T00:51:36.744Z,11.39
2022-09-28T00:51:48.873Z,11.37
2022-09-28T00:52:02.732Z,11.42
2022-09-28T00:52:23.037Z,11.46
2022-09-28T00:52:58.832Z,11.48
2022-09-28T00:53:21.210Z,11.43
2022-09-28T00:53:37.856Z,11.46
2022-09-28T00:53:50.790Z,11.48
2022-09-28T00:54:04.653Z,11.45
2022-09-28T00:54:16.879Z,11.41
2022-09-28T00:54:28.988Z,11.45
2022-09-28T00:54:46.764Z,11.42
2022-09-28T00:55:02.282Z,11.47
2022-09-28T00:55:18.146Z,11.49
2022-09-28T00:55:44.757Z,11.51
2022-09-28T00:56:03.662Z,11.54
2022-09-28T00:56:19.542Z,11.50
2022-09-28T00:56:35.055Z,11.47
2022-09-28T00:56:48.364Z,11.44
2022-09-28T00:57:02.256Z,11.48
2022-09-28T00:57:17.536Z,11.44
2022-09-28T00:57:30.753Z,11.47
2022-09-28T00:57:47.424Z,11.48
2022-09-28T00:58:03.704Z,11.50
2022-09-28T00:58:23.174Z,11.49
2022-09-28T00:58:41.341Z,11.50
2022-09-28T00:58:54.629Z,11.50
2022-09-28T00:59:08.559Z,11.51
2022-09-28T00:59:24.294Z,11.53
2022-09-28T00:59:36.333Z,11.49
2022-09-28T00:59:49.537Z,11.50
2022-09-28T01:00:03.271Z,11.50
2022-09-28T01:00:15.722Z,11.53
2022-09-28T01:00:27.704Z,11.51
2022-09-28T01:00:42.857Z,11.52
2022-09-28T01:00:59.454Z,11.53
2022-09-28T01:01:12.587Z,11.54
2022-09-28T01:01:24.693Z,11.55
2022-09-28T01:01:37.335Z,11.57
2022-09-28T01:01:49.571Z,11.58
2022-09-28T01:02:02.570Z,11.60
2022-09-28T01:02:14.591Z,11.62
2022-09-28T01:02:26.640Z,11.60
2022-09-28T01:02:38.695Z,11.64
2022-09-28T01:02:51.287Z,11.66
2022-09-28T01:03:03.886Z,11.68
2022-09-28T01:03:16.800Z,11.68
2022-09-28T01:03:28.948Z,11.71
2022-09-28T01:03:45.175Z,11.73
2022-09-28T01:04:02.625Z,11.74
2022-09-28T01:04:14.758Z,11.78
2022-09-28T01:04:29.835Z,11.78
2022-09-28T01:04:42.370Z,11.78
2022-09-28T01:04:55.568Z,11.80
2022-09-28T01:05:10.289Z,11.82
2022-09-28T01:05:24.156Z,11.84
2022-09-28T01:05:37.204Z,11.84
2022-09-28T01:05:51.748Z,11.83
2022-09-28T01:06:06.504Z,11.83
2022-09-28T01:06:23.582Z,11.85
2022-09-28T01:06:38.518Z,11.86
2022-09-28T01:06:51.212Z,11.89
2022-09-28T01:07:03.097Z,11.89
2022-09-28T01:07:17.052Z,11.89
2022-09-28T01:07:29.265Z,11.85
2022-09-28T01:07:43.925Z,11.87
2022-09-28T01:07:57.519Z,11.84
2022-09-28T01:08:11.212Z,11.82
2022-09-28T01:08:27.621Z,11.82
2022-09-28T01:08:39.952Z,11.80
2022-09-28T01:08:54.322Z,11.80
2022-09-28T01:09:10.395Z,11.72
2022-09-28T01:09:25.000Z,11.73
2022-09-28T01:09:41.444Z,11.74
2022-09-28T01:09:54.098Z,11.73
2022-09-28T01:10:07.229Z,11.75
2022-09-28T01:10:19.128Z,11.76
2022-09-28T01:10:31.420Z,11.71
2022-09-28T01:10:43.696Z,11.72
2022-09-28T01:10:59.420Z,11.73
2022-09-28T01:11:11.474Z,11.74
2022-09-28T01:11:24.327Z,11.73
2022-09-28T01:11:38.703Z,11.76
2022-09-28T01:11:50.621Z,11.75
2022-09-28T01:12:02.797Z,11.76
2022-09-28T01:12:14.719Z,11.78
2022-09-28T01:12:26.735Z,11.79
2022-09-28T01:12:38.694Z,11.78
2022-09-28T01:12:50.834Z,11.79
2022-09-28T01:13:02.842Z,11.80
2022-09-28T01:13:17.049Z,11.81
2022-09-28T01:13:31.472Z,11.83
2022-09-28T01:13:44.592Z,11.83
2022-09-28T01:13:57.863Z,11.84
2022-09-28T01:14:13.958Z,11.84
2022-09-28T01:14:28.640Z,11.85
2022-09-28T01:14:41.254Z,11.84
2022-09-28T01:14:53.235Z,11.82
2022-09-28T01:15:06.192Z,11.82
2022-09-28T01:15:24.644Z,11.82
2022-09-28T01:15:55.059Z,11.71
2022-09-28T01:16:14.679Z,11.75
2022-09-28T01:16:41.826Z,11.68
2022-09-28T01:17:05.280Z,11.70
2022-09-28T01:17:25.359Z,11.65
2022-09-28T01:18:09.636Z,11.58
2022-09-28T01:18:43.517Z,11.51
2022-09-28T01:19:10.823Z,11.58
2022-09-28T01:19:58.198Z,11.41
2022-09-28T01:20:28.859Z,11.40
2022-09-28T01:20:53.996Z,11.38
2022-09-28T01:21:20.670Z,11.38
2022-09-28T01:21:42.910Z,11.41
2022-09-28T01:22:19.124Z,11.44
2022-09-28T01:23:03.032Z,11.46
2022-09-28T01:23:36.672Z,11.51
2022-09-28T01:24:03.295Z,11.49
2022-09-28T01:24:34.477Z,11.50
2022-09-28T01:24:48.285Z,11.50
2022-09-28T01:25:00.179Z,11.50
2022-09-28T01:25:14.328Z,11.52
2022-09-28T01:25:38.279Z,11.50
2022-09-28T01:25:55.279Z,11.46
2022-09-28T01:26:25.268Z,11.39
2022-09-28T01:26:48.974Z,11.24
2022-09-28T01:27:10.872Z,11.33
2022-09-28T01:27:54.592Z,11.21
2022-09-28T01:28:18.125Z,11.26
2022-09-28T01:28:31.462Z,11.28
2022-09-28T01:28:44.251Z,11.31
2022-09-28T01:29:06.005Z,11.33
2022-09-28T01:29:20.688Z,11.35
2022-09-28T01:29:39.423Z,11.38
2022-09-28T01:30:04.765Z,11.41
2022-09-28T01:30:20.039Z,11.38
2022-09-28T01:30:41.969Z,11.36
2022-09-28T01:31:11.097Z,11.40
2022-09-28T01:31:30.370Z,11.39
2022-09-28T01:31:49.595Z,11.36
2022-09-28T01:32:25.777Z,11.26
2022-09-28T01:32:43.215Z,11.29
2022-09-28T01:33:07.069Z,11.33
2022-09-28T01:33:23.533Z,11.28
2022-09-28T01:33:55.662Z,11.30
2022-09-28T01:34:16.455Z,11.37
2022-09-28T01:34:36.746Z,11.33
2022-09-28T01:35:15.226Z,11.34
2022-09-28T01:35:31.250Z,11.35
2022-09-28T01:35:47.449Z,11.33
2022-09-28T01:36:11.211Z,11.38
2022-09-28T01:36:36.734Z,11.41
2022-09-28T01:36:53.716Z,11.44
2022-09-28T01:37:09.506Z,11.42
2022-09-28T01:37:26.351Z,11.45
2022-09-28T01:37:52.746Z,11.40
2022-09-28T01:38:10.329Z,11.43
2022-09-28T01:38:29.561Z,11.41
2022-09-28T01:38:52.064Z,11.45
2022-09-28T01:39:15.271Z,11.48
2022-09-28T01:39:47.002Z,11.51
2022-09-28T01:40:03.899Z,11.49
2022-09-28T01:40:17.266Z,11.50
2022-09-28T01:40:32.117Z,11.48
2022-09-28T01:40:47.724Z,11.46
2022-09-28T01:41:00.572Z,11.44
2022-09-28T01:41:13.655Z,11.50
2022-09-28T01:41:29.207Z,11.50
2022-09-28T01:41:43.861Z,11.48
2022-09-28T01:41:59.887Z,11.43
2022-09-28T01:42:19.867Z,11.37
2022-09-28T01:42:36.107Z,11.36
2022-09-28T01:42:54.178Z,11.35
2022-09-28T01:43:11.400Z,11.35
2022-09-28T01:43:26.741Z,11.33
2022-09-28T01:43:42.696Z,11.30
2022-09-28T01:44:02.872Z,11.32
2022-09-28T01:44:18.742Z,11.33
2022-09-28T01:44:39.651Z,11.35
2022-09-28T01:44:56.817Z,11.34
2022-09-28T01:45:21.949Z,11.23
2022-09-28T01:45:42.141Z,11.23
2022-09-28T01:46:23.358Z,11.22
2022-09-28T01:46:42.085Z,11.16
2022-09-28T01:46:54.201Z,11.10
2022-09-28T01:47:11.940Z,11.13
2022-09-28T01:47:26.340Z,11.04
2022-09-28T01:47:39.960Z,11.07
2022-09-28T01:47:57.880Z,11.09
2022-09-28T01:48:12.944Z,11.11
2022-09-28T01:48:31.212Z,11.06
2022-09-28T01:48:58.075Z,11.12
2022-09-28T01:49:15.886Z,11.10
2022-09-28T01:49:34.233Z,11.09
2022-09-28T01:49:50.560Z,11.09
2022-09-28T01:50:12.296Z,11.02
2022-09-28T01:50:28.427Z,11.04
2022-09-28T01:50:44.115Z,11.02
2022-09-28T01:51:00.369Z,11.05
2022-09-28T01:51:25.759Z,10.99
2022-09-28T01:51:42.374Z,10.98
2022-09-28T01:52:00.791Z,11.00
2022-09-28T01:52:24.435Z,10.96
2022-09-28T01:52:49.356Z,10.93
2022-09-28T01:53:10.948Z,10.88
2022-09-28T01:53:27.028Z,10.91
2022-09-28T01:53:42.973Z,10.94
2022-09-28T01:54:00.355Z,10.95
2022-09-28T01:54:14.778Z,10.98
2022-09-28T01:54:31.675Z,11.01
2022-09-28T01:54:53.449Z,11.02
2022-09-28T01:55:21.137Z,11.09
2022-09-28T01:55:37.274Z,11.07
2022-09-28T01:55:55.324Z,11.10
2022-09-28T01:56:19.528Z,11.11
2022-09-28T01:56:39.053Z,11.06
2022-09-28T01:57:10.903Z,11.14
2022-09-28T01:57:28.342Z,11.16
2022-09-28T01:57:47.309Z,11.13
2022-09-28T01:58:08.803Z,11.15
2022-09-28T01:58:47.015Z,11.19
2022-09-28T01:59:12.296Z,11.28
2022-09-28T01:59:28.399Z,11.25
2022-09-28T01:59:50.982Z,11.26
2022-09-28T02:00:09.094Z,11.26
2022-09-28T02:00:24.221Z,11.30
2022-09-28T02:00:41.751Z,11.33
2022-09-28T02:00:59.754Z,11.34
2022-09-28T02:01:21.646Z,11.30
2022-09-28T02:01:41.796Z,11.34
2022-09-28T02:01:57.358Z,11.35
2022-09-28T02:02:21.589Z,11.35
2022-09-28T02:02:41.816Z,11.38
2022-09-28T02:03:08.048Z,11.41
2022-09-28T02:03:26.230Z,11.41
2022-09-28T02:03:53.718Z,11.45
2022-09-28T02:04:13.955Z,11.48
2022-09-28T02:04:45.487Z,11.52
2022-09-28T02:05:00.461Z,11.54
2022-09-28T02:05:17.301Z,11.54
2022-09-28T02:06:04.479Z,11.49
2022-09-28T02:06:26.582Z,11.48
2022-09-28T02:06:46.119Z,11.48
2022-09-28T02:07:01.411Z,11.42
2022-09-28T02:07:53.783Z,11.34
2022-09-28T02:08:12.654Z,11.37
2022-09-28T02:08:42.910Z,11.38
2022-09-28T02:09:00.321Z,11.45
2022-09-28T02:09:18.934Z,11.49
2022-09-28T02:09:38.939Z,11.51
2022-09-28T02:09:57.091Z,11.51
2022-09-28T02:10:33.980Z,11.52
2022-09-28T02:10:55.956Z,11.53
2022-09-28T02:11:15.751Z,11.52
2022-09-28T02:11:27.819Z,11.51
2022-09-28T02:11:47.415Z,11.51
2022-09-28T02:12:03.683Z,11.51
2022-09-28T02:12:39.070Z,11.51
2022-09-28T02:12:51.043Z,11.51
2022-09-28T02:13:10.995Z,11.53
2022-09-28T02:13:55.379Z,11.56
2022-09-28T02:14:11.579Z,11.60
2022-09-28T02:14:25.389Z,11.63
2022-09-28T02:14:39.418Z,11.62
2022-09-28T02:14:55.175Z,11.64
2022-09-28T02:15:20.297Z,11.63
2022-09-28T02:15:54.419Z,11.66
2022-09-28T02:16:12.546Z,11.70
2022-09-28T02:16:45.144Z,11.73
2022-09-28T02:16:58.147Z,11.74
2022-09-28T02:17:10.200Z,11.74
2022-09-28T02:17:22.696Z,11.74
2022-09-28T02:17:35.238Z,11.75
2022-09-28T02:17:47.707Z,11.73
2022-09-28T02:17:59.774Z,11.73
2022-09-28T02:18:11.914Z,11.73
2022-09-28T02:18:24.664Z,11.75
2022-09-28T02:18:37.104Z,11.75
2022-09-28T02:18:50.357Z,11.75
2022-09-28T02:19:03.912Z,11.74
2022-09-28T02:19:25.922Z,11.77
2022-09-28T02:19:39.913Z,11.74
2022-09-28T02:19:52.031Z,11.75
2022-09-28T02:20:04.849Z,11.73
2022-09-28T02:20:17.335Z,11.71
2022-09-28T02:20:32.577Z,11.69
2022-09-28T02:20:51.986Z,11.69
2022-09-28T02:21:11.609Z,11.63
2022-09-28T02:21:46.423Z,11.58
2022-09-28T02:22:25.780Z,11.49
2022-09-28T02:22:58.589Z,11.51
2022-09-28T02:23:10.892Z,11.50
2022-09-28T02:23:26.469Z,11.48
2022-09-28T02:23:46.009Z,11.48
2022-09-28T02:24:02.673Z,11.49
2022-09-28T02:24:21.711Z,11.49
2022-09-28T02:25:13.626Z,11.39
2022-09-28T02:25:35.342Z,11.35
2022-09-28T02:25:58.302Z,11.30
2022-09-28T02:26:13.871Z,11.28
2022-09-28T02:26:31.427Z,11.32
2022-09-28T02:26:45.910Z,11.30
2022-09-28T02:27:03.283Z,11.29
2022-09-28T02:27:24.182Z,11.31
2022-09-28T02:28:02.550Z,11.33
2022-09-28T02:28:14.535Z,11.38
2022-09-28T02:28:26.441Z,11.40
2022-09-28T02:28:38.351Z,11.42
2022-09-28T02:28:50.355Z,11.40
2022-09-28T02:29:02.350Z,11.40
2022-09-28T02:29:14.438Z,11.35
2022-09-28T02:29:26.495Z,11.32
2022-09-28T02:29:38.480Z,11.29
2022-09-28T02:29:50.479Z,11.29
2022-09-28T02:30:04.919Z,11.30
2022-09-28T02:30:17.928Z,11.33
2022-09-28T02:30:31.180Z,11.36
2022-09-28T02:30:44.564Z,11.34
2022-09-28T02:30:56.462Z,11.35
2022-09-28T02:31:08.389Z,11.33
2022-09-28T02:31:20.522Z,11.32
2022-09-28T02:31:32.721Z,11.32
2022-09-28T02:31:44.783Z,11.31
2022-09-28T02:31:56.817Z,11.32
2022-09-28T02:32:08.869Z,11.33
2022-09-28T02:32:20.820Z,11.32
2022-09-28T02:32:40.072Z,11.34
2022-09-28T02:32:55.739Z,11.27
2022-09-28T02:33:16.610Z,11.20
2022-09-28T02:33:32.021Z,11.17
2022-09-28T02:33:44.940Z,11.16
2022-09-28T02:33:57.985Z,11.18
2022-09-28T02:34:10.071Z,11.20
2022-09-28T02:34:22.055Z,11.21
2022-09-28T02:34:35.243Z,11.21
2022-09-28T02:34:47.241Z,11.23
2022-09-28T02:34:59.473Z,11.24
2022-09-28T02:35:13.777Z,11.25
2022-09-28T02:35:25.789Z,11.28
2022-09-28T02:35:40.952Z,11.28
2022-09-28T02:35:52.840Z,11.27
2022-09-28T02:36:05.391Z,11.31
2022-09-28T02:36:17.426Z,11.31
2022-09-28T02:36:29.864Z,11.30
2022-09-28T02:36:41.999Z,11.30
2022-09-28T02:36:54.147Z,11.26
2022-09-28T02:37:08.688Z,11.23
2022-09-28T02:37:20.948Z,11.23
2022-09-28T02:37:32.829Z,11.24
2022-09-28T02:37:45.558Z,11.20
2022-09-28T02:37:57.615Z,11.20
2022-09-28T02:38:13.819Z,11.20
2022-09-28T02:38:25.736Z,11.23
2022-09-28T02:38:38.054Z,11.20
2022-09-28T02:38:49.952Z,11.19
2022-09-28T02:39:02.295Z,11.19
2022-09-28T02:39:16.831Z,11.18
2022-09-28T02:39:28.881Z,11.09
2022-09-28T02:39:40.815Z,11.15
2022-09-28T02:39:52.974Z,11.14
2022-09-28T02:40:20.234Z,11.12
2022-09-28T02:40:35.016Z,11.14
2022-09-28T02:41:25.163Z,11.18
2022-09-28T02:41:46.112Z,11.24
2022-09-28T02:42:09.781Z,11.23
2022-09-28T02:42:29.190Z,11.24
2022-09-28T02:43:55.311Z,11.24
2022-09-28T02:44:35.129Z,11.25
2022-09-28T02:45:08.081Z,11.24
2022-09-28T02:45:45.839Z,11.23
2022-09-28T02:46:28.245Z,11.05
2022-09-28T02:46:57.404Z,11.06
2022-09-28T02:47:24.114Z,11.04
2022-09-28T02:47:48.332Z,11.01
2022-09-28T02:48:41.250Z,11.05
2022-09-28T02:49:23.534Z,10.93
2022-09-28T02:49:49.387Z,10.85
2022-09-28T02:50:19.436Z,10.76
2022-09-28T02:50:40.042Z,10.60
2022-09-28T02:51:12.284Z,10.54
2022-09-28T02:51:24.815Z,10.52
2022-09-28T02:51:55.227Z,10.54
2022-09-28T02:52:25.655Z,10.57
2022-09-28T02:52:46.340Z,10.59
2022-09-28T02:53:13.757Z,10.52
2022-09-28T02:53:45.628Z,10.53
2022-09-28T02:54:23.571Z,10.42
2022-09-28T02:55:03.153Z,10.44
2022-09-28T02:55:32.976Z,10.40
2022-09-28T02:56:17.167Z,10.39
2022-09-28T02:57:01.264Z,10.39
2022-09-28T02:57:19.569Z,10.39
2022-09-28T02:58:20.325Z,10.45
2022-09-28T02:58:39.760Z,10.47
2022-09-28T02:59:10.190Z,10.43
2022-09-28T02:59:56.951Z,10.53
2022-09-28T03:00:14.732Z,10.45
2022-09-28T03:00:27.906Z,10.42
2022-09-28T03:00:51.717Z,10.38
2022-09-28T03:01:15.541Z,10.45
2022-09-28T03:01:38.621Z,10.38
2022-09-28T03:02:08.010Z,10.43
2022-09-28T03:02:32.268Z,10.36
2022-09-28T03:02:59.017Z,10.34
2022-09-28T03:03:24.845Z,10.37
2022-09-28T03:04:10.676Z,10.27
2022-09-28T03:04:33.378Z,10.23
2022-09-28T03:05:03.814Z,10.30
2022-09-28T03:05:32.419Z,10.41
2022-09-28T03:05:52.720Z,10.50
2022-09-28T03:06:32.153Z,10.41
2022-09-28T03:06:55.748Z,10.38
2022-09-28T03:07:16.147Z,10.37
2022-09-28T03:07:40.359Z,10.35
2022-09-28T03:07:59.577Z,10.37
2022-09-28T03:08:14.070Z,10.34
2022-09-28T03:08:40.852Z,10.44
2022-09-28T03:09:13.189Z,10.41
2022-09-28T03:09:33.618Z,10.37
2022-09-28T03:09:57.187Z,10.42
2022-09-28T03:10:48.542Z,10.29
2022-09-28T03:11:13.411Z,10.32
2022-09-28T03:11:35.400Z,10.27
2022-09-28T03:11:52.482Z,10.30
2022-09-28T03:12:13.286Z,10.34
2022-09-28T03:12:29.191Z,10.31
2022-09-28T03:12:42.269Z,10.34
2022-09-28T03:12:55.516Z,10.35
2022-09-28T03:13:08.643Z,10.37
2022-09-28T03:13:23.486Z,10.36
2022-09-28T03:13:35.907Z,10.36
2022-09-28T03:13:48.597Z,10.37
2022-09-28T03:14:01.930Z,10.41
2022-09-28T03:14:17.107Z,10.43
2022-09-28T03:14:29.002Z,10.43
2022-09-28T03:14:41.216Z,10.42
2022-09-28T03:15:11.077Z,10.47
2022-09-28T03:15:48.953Z,10.47
2022-09-28T03:16:16.318Z,10.48
2022-09-28T03:16:29.022Z,10.46
2022-09-28T03:16:45.136Z,10.49
2022-09-28T03:16:57.128Z,10.55
2022-09-28T03:17:09.025Z,10.48
2022-09-28T03:17:22.259Z,10.47
2022-09-28T03:17:34.145Z,10.48
2022-09-28T03:17:46.693Z,10.48
2022-09-28T03:17:59.085Z,10.49
2022-09-28T03:18:11.120Z,10.52
2022-09-28T03:18:23.018Z,10.53
2022-09-28T03:18:34.920Z,10.49
2022-09-28T03:18:49.768Z,10.50
2022-09-28T03:19:01.719Z,10.51
2022-09-28T03:19:15.955Z,10.43
2022-09-28T03:19:33.933Z,10.47
2022-09-28T03:19:45.808Z,10.52
2022-09-28T03:19:57.679Z,10.55
2022-09-28T03:20:12.022Z,10.50
2022-09-28T03:20:24.459Z,10.50
2022-09-28T03:20:37.206Z,10.52
2022-09-28T03:20:52.318Z,10.53
2022-09-28T03:21:05.392Z,10.46
2022-09-28T03:21:23.296Z,10.44
2022-09-28T03:21:35.213Z,10.47
2022-09-28T03:21:47.095Z,10.50
2022-09-28T03:21:59.552Z,10.49
2022-09-28T03:22:11.422Z,10.51
2022-09-28T03:22:23.320Z,10.48
2022-09-28T03:22:35.200Z,10.47
2022-09-28T03:23:06.003Z,10.49
2022-09-28T03:23:26.126Z,10.51
2022-09-28T03:23:39.843Z,10.45
2022-09-28T03:23:51.740Z,10.46
2022-09-28T03:24:15.285Z,10.49
2022-09-28T03:24:27.369Z,10.47
2022-09-28T03:24:42.019Z,10.49
2022-09-28T03:24:56.449Z,10.52
2022-09-28T03:25:08.686Z,10.52
2022-09-28T03:25:20.612Z,10.58
2022-09-28T03:25:32.504Z,10.61
2022-09-28T03:25:44.371Z,10.62
2022-09-28T03:25:56.860Z,10.59
2022-09-28T03:26:11.145Z,10.59
2022-09-28T03:26:23.017Z,10.61
2022-09-28T03:26:43.742Z,10.56
2022-09-28T03:26:57.549Z,10.58
2022-09-28T03:27:09.436Z,10.59
2022-09-28T03:27:21.789Z,10.58
2022-09-28T03:27:33.687Z,10.56
2022-09-28T03:27:47.050Z,10.54
2022-09-28T03:27:59.063Z,10.56
2022-09-28T03:28:10.943Z,10.58
2022-09-28T03:28:23.181Z,10.49
2022-09-28T03:28:36.190Z,10.49
2022-09-28T03:28:48.058Z,10.49
2022-09-28T03:28:59.944Z,10.54
2022-09-28T03:29:15.025Z,10.48
2022-09-28T03:29:27.077Z,10.52
2022-09-28T03:29:40.544Z,10.55
2022-09-28T03:29:52.428Z,10.53
2022-09-28T03:30:05.395Z,10.51
2022-09-28T03:30:17.757Z,10.50
2022-09-28T03:30:29.659Z,10.47
2022-09-28T03:30:43.353Z,10.47
2022-09-28T03:30:56.070Z,10.46
2022-09-28T03:31:08.184Z,10.48
2022-09-28T03:31:20.161Z,10.47
2022-09-28T03:31:35.078Z,10.47
2022-09-28T03:31:48.488Z,10.56
2022-09-28T03:32:00.602Z,10.55
2022-09-28T03:32:12.478Z,10.57
2022-09-28T03:32:29.417Z,10.58
2022-09-28T03:32:42.632Z,10.58
2022-09-28T03:32:59.257Z,10.58
2022-09-28T03:33:12.108Z,10.59
2022-09-28T03:33:24.040Z,10.59
2022-09-28T03:33:35.959Z,10.59
2022-09-28T03:33:47.841Z,10.61
2022-09-28T03:33:59.745Z,10.65
2022-09-28T03:34:11.687Z,10.66
2022-09-28T03:34:23.555Z,10.66
2022-09-28T03:34:35.626Z,10.60
2022-09-28T03:34:47.517Z,10.59
2022-09-28T03:34:59.395Z,10.59
2022-09-28T03:35:11.317Z,10.54
2022-09-28T03:35:23.179Z,10.47
2022-09-28T03:35:35.051Z,10.54
2022-09-28T03:35:48.309Z,10.56
2022-09-28T03:36:00.347Z,10.61
2022-09-28T03:36:14.539Z,10.62
2022-09-28T03:36:26.482Z,10.61
2022-09-28T03:36:38.395Z,10.61
2022-09-28T03:36:50.247Z,10.59
2022-09-28T03:37:02.160Z,10.59
2022-09-28T03:37:14.045Z,10.60
2022-09-28T03:37:27.404Z,10.62
2022-09-28T03:37:39.349Z,10.62
2022-09-28T03:37:54.803Z,10.64
2022-09-28T03:38:06.711Z,10.63
2022-09-28T03:38:19.074Z,10.65
2022-09-28T03:38:30.954Z,10.67
2022-09-28T03:38:42.915Z,10.68
2022-09-28T03:38:56.072Z,10.65
2022-09-28T03:39:07.939Z,10.66
2022-09-28T03:39:19.820Z,10.66
2022-09-28T03:39:31.880Z,10.68
2022-09-28T03:39:43.768Z,10.61
2022-09-28T03:39:56.816Z,10.59
2022-09-28T03:40:09.127Z,10.59
2022-09-28T03:40:21.084Z,10.59
2022-09-28T03:40:33.087Z,10.56
2022-09-28T03:40:53.520Z,10.52
2022-09-28T03:41:05.717Z,10.55